Time;durP1;ratioP1;P1;durP2;ratioP2;P2;SDS_P1;SDS_P2;PMS_P1;PMS_P2;Temp;Humidity;BMP_temperature;BMP_pressure;BME280_temperature;BME280_humidity;BME280_pressure;Samples;Min_cycle;Max_cycle;Signal;HPM_P1;HPM_P2
2021/05/28 00:01:20;;;;;;;19.92;17.83;;;;;;;18.25;73.64;99671.72;5064845;28;20039;-46
2021/05/28 00:03:46;;;;;;;21.35;19.23;;;;;;;18.22;73.77;99671.03;5056365;28;20123;-51
2021/05/28 00:06:12;;;;;;;22.42;18.67;;;;;;;18.13;73.70;99658.56;5068883;28;20495;-51
2021/05/28 00:08:37;;;;;;;21.20;18.98;;;;;;;18.14;73.82;99664.81;5057875;28;20064;-53
2021/05/28 00:11:03;;;;;;;23.23;18.63;;;;;;;18.15;73.90;99667.38;5057978;28;20063;-57
2021/05/28 00:13:29;;;;;;;20.65;18.55;;;;;;;18.10;74.03;99668.91;5065416;28;20040;-53
2021/05/28 00:15:54;;;;;;;24.83;19.38;;;;;;;18.11;74.14;99671.47;5070775;28;20119;-52
2021/05/28 00:18:20;;;;;;;21.27;18.98;;;;;;;18.08;74.05;99671.78;5060251;28;20029;-54
2021/05/28 00:20:45;;;;;;;20.73;18.33;;;;;;;18.07;74.09;99681.78;5052328;28;20033;-48
2021/05/28 00:23:11;;;;;;;22.42;18.73;;;;;;;18.06;74.24;99673.81;5052971;28;20029;-52
2021/05/28 00:25:36;;;;;;;20.45;18.35;;;;;;;18.01;74.04;99678.91;5052976;28;20406;-54
2021/05/28 00:28:02;;;;;;;22.63;20.23;;;;;;;17.61;74.41;99606.66;5065610;28;20071;-54
2021/05/28 00:30:27;;;;;;;21.25;18.67;;;;;;;18.07;74.33;99670.97;5072529;28;20041;-53
2021/05/28 00:32:53;;;;;;;21.15;18.98;;;;;;;17.78;74.19;99623.66;5072445;28;20036;-53
2021/05/28 00:35:18;;;;;;;20.60;18.38;;;;;;;18.01;74.60;99659.94;5072139;28;20043;-49
2021/05/28 00:37:45;;;;;;;22.85;19.50;;;;;;;17.91;74.57;99638.50;5070757;28;20033;-50
2021/05/28 00:40:11;;;;;;;22.50;19.77;;;;;;;17.82;74.77;99634.13;5072775;28;20048;-52
2021/05/28 00:42:37;;;;;;;24.90;20.45;;;;;;;17.94;74.71;99654.38;5053724;28;20064;-47
2021/05/28 00:45:05;;;;;;;26.45;21.35;;;;;;;17.64;74.63;99611.72;5052754;28;20412;-48
2021/05/28 00:47:30;;;;;;;29.50;21.92;;;;;;;17.89;74.29;99646.81;5053354;28;20433;-48
2021/05/28 00:49:55;;;;;;;29.75;22.02;;;;;;;17.75;74.37;99637.56;5051011;28;20094;-49
2021/05/28 00:52:21;;;;;;;31.63;21.83;;;;;;;17.80;74.42;99647.84;5052749;28;20393;-49
2021/05/28 00:54:46;;;;;;;24.17;21.58;;;;;;;17.72;74.25;99639.75;5052258;28;20115;-51
2021/05/28 00:57:12;;;;;;;27.00;21.67;;;;;;;17.64;74.30;99630.66;5053214;28;20040;-51
2021/05/28 00:59:39;;;;;;;27.25;22.20;;;;;;;17.71;73.92;99638.06;5051927;28;20036;-52
2021/05/28 01:02:16;;;;;;;28.75;22.40;;;;;;;17.75;74.07;99644.81;5067140;28;20131;-55
2021/05/28 01:04:41;;;;;;;30.30;22.70;;;;;;;17.69;73.98;99645.53;5066956;28;20035;-53
2021/05/28 01:07:07;;;;;;;28.83;21.92;;;;;;;17.55;74.06;99612.75;5067198;28;20037;-54
2021/05/28 01:09:32;;;;;;;29.23;22.10;;;;;;;17.77;73.77;99645.50;5072905;28;20644;-54
2021/05/28 01:11:58;;;;;;;29.23;22.13;;;;;;;17.77;73.94;99648.19;5083420;28;20063;-51
2021/05/28 01:14:23;;;;;;;28.38;22.65;;;;;;;17.76;73.75;99643.81;5081173;28;20060;-50
2021/05/28 01:16:49;;;;;;;28.23;21.60;;;;;;;17.35;73.91;99574.44;5064427;28;20440;-51
2021/05/28 01:19:15;;;;;;;28.85;22.77;;;;;;;17.81;73.88;99657.66;5064323;28;20036;-51
2021/05/28 01:21:46;;;;;;;26.35;22.95;;;;;;;17.79;73.83;99662.41;5064570;28;20076;-53
2021/05/28 01:24:12;;;;;;;27.70;21.77;;;;;;;17.67;73.93;99640.28;5065909;28;20071;-55
2021/05/28 01:26:38;;;;;;;25.58;21.55;;;;;;;17.74;73.86;99659.38;5066154;28;20060;-53
2021/05/28 01:29:03;;;;;;;26.65;22.05;;;;;;;17.72;73.63;99650.59;5066720;28;20035;-52
2021/05/28 01:31:29;;;;;;;25.55;22.25;;;;;;;17.48;73.90;99615.31;5067010;28;20039;-51
2021/05/28 01:33:55;;;;;;;29.80;22.35;;;;;;;17.69;73.91;99640.94;5066007;28;20478;-50
2021/05/28 01:36:20;;;;;;;30.02;22.88;;;;;;;17.72;73.75;99651.41;5065894;28;20033;-52
2021/05/28 01:38:46;;;;;;;28.45;23.77;;;;;;;17.75;74.03;99648.38;5066819;28;20480;-54
2021/05/28 01:41:11;;;;;;;26.13;22.83;;;;;;;17.77;74.05;99656.31;5065693;28;20068;-53
2021/05/28 01:43:37;;;;;;;31.10;24.00;;;;;;;17.87;73.98;99653.41;5066155;28;20071;-52
2021/05/28 01:46:03;;;;;;;28.77;23.92;;;;;;;17.97;73.55;99645.06;5065712;28;20032;-53
2021/05/28 01:48:28;;;;;;;27.17;24.02;;;;;;;18.16;73.02;99644.66;5066513;28;20063;-51
2021/05/28 01:50:54;;;;;;;30.90;24.55;;;;;;;18.30;72.71;99648.47;5066114;28;20112;-55
2021/05/28 01:53:21;;;;;;;28.00;25.00;;;;;;;18.39;72.06;99645.72;5065939;28;20408;-48
2021/05/28 01:55:48;;;;;;;30.20;25.48;;;;;;;18.54;71.69;99653.91;5066017;28;20044;-54
2021/05/28 01:58:16;;;;;;;27.35;24.25;;;;;;;18.68;71.65;99663.97;5064822;28;20120;-51
2021/05/28 02:00:42;;;;;;;28.50;25.17;;;;;;;18.80;71.23;99651.66;5066402;28;20057;-52
2021/05/28 02:03:08;;;;;;;29.15;24.90;;;;;;;18.97;70.65;99665.09;5065861;28;20206;-57
2021/05/28 02:05:35;;;;;;;31.30;24.55;;;;;;;19.16;70.19;99658.34;5065932;28;20121;-50
2021/05/28 02:08:02;;;;;;;28.58;24.42;;;;;;;19.31;69.49;99644.81;5064348;28;20480;-50
2021/05/28 02:10:29;;;;;;;28.80;25.02;;;;;;;19.51;68.90;99646.97;5072293;28;20046;-55
2021/05/28 02:12:55;;;;;;;27.52;24.75;;;;;;;19.72;68.16;99648.09;5072044;28;20048;-53
2021/05/28 02:15:21;;;;;;;28.02;25.15;;;;;;;19.74;67.93;99635.16;5069442;28;20037;-52
2021/05/28 02:17:46;;;;;;;32.08;25.98;;;;;;;19.51;67.51;99587.22;5064283;28;20033;-54
2021/05/28 02:20:12;;;;;;;29.42;25.85;;;;;;;19.92;67.38;99651.94;5032202;28;20037;-53
2021/05/28 02:22:38;;;;;;;28.88;25.60;;;;;;;19.87;67.51;99632.63;5031922;28;20037;-55
2021/05/28 02:25:07;;;;;;;31.10;25.65;;;;;;;20.00;67.15;99647.41;5039403;28;20627;-51
2021/05/28 02:27:33;;;;;;;27.83;24.83;;;;;;;19.98;67.54;99649.50;5049891;28;20044;-52
2021/05/28 02:29:59;;;;;;;28.65;24.52;;;;;;;19.92;67.49;99634.81;5032097;28;20409;-54
2021/05/28 02:32:26;;;;;;;29.00;25.88;;;;;;;19.95;67.24;99645.28;5031392;28;20045;-54
2021/05/28 02:34:51;;;;;;;30.45;26.70;;;;;;;19.86;67.34;99630.06;5032600;28;20037;-53
2021/05/28 02:37:17;;;;;;;31.30;25.83;;;;;;;19.91;67.27;99638.56;5032325;28;20042;-53
2021/05/28 02:39:43;;;;;;;30.38;25.52;;;;;;;19.93;67.29;99648.19;5039828;28;20124;-49
2021/05/28 02:42:09;;;;;;;28.48;25.48;;;;;;;19.90;67.46;99640.38;5044446;28;20055;-57
2021/05/28 02:44:34;;;;;;;30.13;25.25;;;;;;;19.93;67.55;99653.63;5047387;28;20044;-55
2021/05/28 02:47:00;;;;;;;29.08;25.98;;;;;;;19.85;67.18;99625.69;5049072;28;20403;-55
2021/05/28 02:49:25;;;;;;;32.30;26.58;;;;;;;19.97;67.37;99634.22;5045674;28;20026;-52
2021/05/28 02:51:51;;;;;;;29.33;26.30;;;;;;;20.07;66.85;99637.50;5029777;28;20514;-54
2021/05/28 02:54:16;;;;;;;30.23;25.85;;;;;;;20.15;66.71;99639.25;5030599;28;20735;-54
2021/05/28 02:56:42;;;;;;;30.80;26.58;;;;;;;20.23;66.57;99634.53;5039794;28;20381;-52
2021/05/28 02:59:07;;;;;;;29.10;25.65;;;;;;;20.20;66.55;99628.66;5067479;28;20063;-53
2021/05/28 03:01:33;;;;;;;32.53;25.77;;;;;;;20.29;66.53;99629.38;5029301;28;20144;-52
2021/05/28 03:03:58;;;;;;;29.55;26.38;;;;;;;20.28;66.37;99633.97;5031276;28;20493;-54
2021/05/28 03:06:23;;;;;;;30.17;25.70;;;;;;;20.28;66.46;99625.81;5031847;28;20133;-50
2021/05/28 03:08:49;;;;;;;27.98;25.23;;;;;;;20.23;66.50;99615.50;5031843;28;20041;-57
2021/05/28 03:11:14;;;;;;;28.65;25.52;;;;;;;20.14;66.45;99621.28;5032607;28;20115;-53
2021/05/28 03:13:41;;;;;;;30.83;27.13;;;;;;;20.13;66.86;99627.72;5056209;28;20139;-52
2021/05/28 03:16:06;;;;;;;29.40;26.30;;;;;;;19.87;67.07;99591.88;5067294;28;20391;-51
2021/05/28 03:18:50;;;;;;;33.17;27.15;;;;;;;20.15;66.99;99622.97;5066884;28;20036;-51
2021/05/28 03:23:50;;;;;;;29.15;25.88;;;;;;;20.24;66.77;99632.66;5028809;28;20052;-53
2021/05/28 03:26:15;;;;;;;29.80;26.58;;;;;;;20.28;66.47;99633.13;5029317;28;20591;-53
2021/05/28 03:28:41;;;;;;;29.67;26.67;;;;;;;20.28;66.47;99633.97;5029834;28;20037;-51
2021/05/28 03:31:06;;;;;;;32.55;29.00;;;;;;;20.33;66.17;99626.06;5031809;28;20151;-53
2021/05/28 03:33:32;;;;;;;30.73;27.45;;;;;;;20.35;65.98;99617.72;5048485;28;20072;-54
2021/05/28 03:35:58;;;;;;;32.80;29.33;;;;;;;20.36;65.80;99617.50;5050852;28;20041;-51
2021/05/28 03:38:24;;;;;;;34.92;28.45;;;;;;;20.22;65.37;99593.97;5050403;28;20491;-47
2021/05/28 03:40:49;;;;;;;32.92;29.00;;;;;;;20.40;65.60;99623.41;5050913;28;20112;-55
2021/05/28 03:43:15;;;;;;;37.05;31.00;;;;;;;20.48;65.22;99631.44;5049005;28;20047;-53
2021/05/28 03:45:40;;;;;;;33.88;30.23;;;;;;;20.53;65.46;99628.16;5050802;28;20190;-52
2021/05/28 03:48:06;;;;;;;36.83;32.15;;;;;;;20.57;65.45;99645.75;5050438;28;20043;-52
2021/05/28 03:50:31;;;;;;;36.42;32.53;;;;;;;20.56;65.33;99635.09;5050539;28;20060;-54
2021/05/28 03:52:57;;;;;;;38.10;33.13;;;;;;;20.54;65.25;99631.72;5048946;28;20030;-52
2021/05/28 03:55:22;;;;;;;40.70;33.33;;;;;;;20.54;65.40;99637.16;5051154;28;20039;-51
2021/05/28 03:57:48;;;;;;;34.92;30.98;;;;;;;20.44;65.37;99632.88;5050291;28;20044;-52
2021/05/28 04:00:14;;;;;;;34.15;30.55;;;;;;;20.47;65.42;99637.91;5049936;28;20215;-48
2021/05/28 04:02:39;;;;;;;35.38;31.45;;;;;;;20.56;65.21;99645.97;5047314;28;20033;-50
2021/05/28 04:05:05;;;;;;;34.15;29.50;;;;;;;20.57;65.34;99650.38;5050224;28;20048;-53
2021/05/28 04:07:31;;;;;;;33.15;28.92;;;;;;;20.33;65.25;99604.31;5049859;28;20539;-52
2021/05/28 04:09:56;;;;;;;31.67;28.38;;;;;;;20.61;65.06;99633.44;5049972;28;20029;-53
2021/05/28 04:12:22;;;;;;;32.42;28.85;;;;;;;20.66;64.72;99630.16;5050107;28;20029;-49
2021/05/28 04:14:47;;;;;;;31.75;28.13;;;;;;;20.79;64.57;99637.59;5035091;28;20436;-53
2021/05/28 04:17:12;;;;;;;30.70;27.52;;;;;;;20.58;64.42;99592.22;5029903;28;20061;-54
2021/05/28 04:19:38;;;;;;;29.98;26.70;;;;;;;20.91;64.04;99635.22;5029903;28;20045;-54
2021/05/28 04:22:03;;;;;;;30.77;27.58;;;;;;;20.96;63.74;99638.19;5029676;28;20565;-53
2021/05/28 04:24:29;;;;;;;31.92;27.40;;;;;;;21.00;63.74;99638.63;5033398;28;20033;-47
2021/05/28 04:26:55;;;;;;;30.33;27.20;;;;;;;21.00;63.51;99634.06;5043742;28;20028;-53
2021/05/28 04:29:21;;;;;;;32.40;28.40;;;;;;;20.97;63.58;99636.31;5050339;28;20036;-55
2021/05/28 04:31:47;;;;;;;32.90;29.35;;;;;;;20.85;63.41;99622.41;5049222;28;20033;-53
2021/05/28 04:34:12;;;;;;;31.85;28.55;;;;;;;20.81;63.90;99635.53;5046632;28;20464;-52
2021/05/28 04:36:38;;;;;;;30.98;27.63;;;;;;;20.75;63.80;99656.19;5046169;28;20068;-54
2021/05/28 04:39:04;;;;;;;30.65;26.95;;;;;;;20.41;64.34;99606.06;5040342;28;20052;-52
2021/05/28 04:41:29;;;;;;;33.63;28.10;;;;;;;20.49;64.42;99635.84;5028028;28;20037;-50
2021/05/28 04:43:55;;;;;;;31.77;28.45;;;;;;;20.54;64.49;99659.75;5050449;28;20033;-50
2021/05/28 04:46:20;;;;;;;32.78;29.38;;;;;;;20.49;64.73;99663.03;5027676;28;20428;-52
2021/05/28 04:48:46;;;;;;;32.03;28.15;;;;;;;20.42;64.89;99647.72;5028781;28;20125;-52
2021/05/28 04:51:11;;;;;;;32.70;29.33;;;;;;;20.41;64.99;99654.19;5030018;28;20040;-53
2021/05/28 04:53:37;;;;;;;34.38;29.20;;;;;;;20.37;64.87;99653.72;5030396;28;20029;-54
2021/05/28 04:56:02;;;;;;;33.10;29.67;;;;;;;20.43;64.78;99652.13;5044362;28;20060;-53
2021/05/28 04:58:28;;;;;;;34.75;29.67;;;;;;;20.41;64.91;99633.25;5049180;28;20040;-51
2021/05/28 05:00:54;;;;;;;31.67;28.33;;;;;;;20.48;64.68;99645.03;5049725;28;20075;-51
2021/05/28 05:03:20;;;;;;;32.88;29.23;;;;;;;20.56;64.63;99633.19;5047786;28;20120;-50
2021/05/28 05:05:45;;;;;;;32.97;29.15;;;;;;;20.60;64.76;99639.09;5030721;28;20128;-50
2021/05/28 05:08:11;;;;;;;33.88;30.25;;;;;;;20.61;64.36;99643.50;5029644;28;20029;-55
2021/05/28 05:10:36;;;;;;;32.88;28.90;;;;;;;20.53;64.12;99630.88;5029684;28;20504;-51
2021/05/28 05:13:10;;;;;;;32.45;29.02;;;;;;;20.68;64.40;99655.28;5029242;28;20485;-48
2021/05/28 05:15:36;;;;;;;33.70;28.33;;;;;;;20.68;64.28;99655.28;5032406;28;20576;-53
2021/05/28 05:18:02;;;;;;;31.10;27.83;;;;;;;20.68;63.89;99640.84;5030670;28;20053;-52
2021/05/28 05:20:27;;;;;;;31.77;28.42;;;;;;;20.67;64.05;99650.88;5029888;28;20140;-54
2021/05/28 05:22:53;;;;;;;32.38;29.02;;;;;;;20.32;63.95;99596.38;5029535;28;20038;-55
2021/05/28 05:25:18;;;;;;;33.05;28.70;;;;;;;20.66;63.92;99654.63;5029601;28;20135;-54
2021/05/28 05:27:44;;;;;;;33.00;29.25;;;;;;;20.62;63.75;99642.47;5028606;28;20076;-53
2021/05/28 05:30:11;;;;;;;32.50;29.20;;;;;;;20.04;63.80;99557.19;5028534;28;20037;-52
2021/05/28 05:32:37;;;;;;;32.28;28.35;;;;;;;20.64;63.72;99654.00;5027379;28;20117;-53
2021/05/28 05:35:02;;;;;;;37.45;30.15;;;;;;;20.61;63.66;99638.88;5032114;28;20037;-50
2021/05/28 05:37:28;;;;;;;34.42;30.42;;;;;;;20.74;63.83;99654.53;5047824;28;20527;-56
2021/05/28 05:39:53;;;;;;;33.53;30.02;;;;;;;20.76;63.18;99641.56;5049085;28;20033;-54
2021/05/28 05:42:19;;;;;;;37.90;33.90;;;;;;;20.86;62.84;99640.41;5048886;28;20132;-52
2021/05/28 05:44:44;;;;;;;34.70;31.05;;;;;;;20.91;62.60;99646.97;5047636;28;20524;-51
2021/05/28 05:47:10;;;;;;;37.08;33.03;;;;;;;20.96;62.73;99645.53;5033410;28;20033;-53
2021/05/28 05:49:36;;;;;;;39.00;33.97;;;;;;;21.07;62.45;99639.53;5037362;28;20420;-54
2021/05/28 05:52:02;;;;;;;39.13;34.92;;;;;;;21.11;62.21;99649.00;5042515;28;20040;-54
2021/05/28 05:54:27;;;;;;;37.90;33.42;;;;;;;21.14;61.97;99647.75;5032969;28;20030;-49
2021/05/28 05:56:53;;;;;;;40.03;34.97;;;;;;;20.75;62.10;99576.47;5044486;28;20123;-51
2021/05/28 05:59:18;;;;;;;39.63;34.20;;;;;;;21.13;62.14;99646.91;5053115;28;20033;-53
2021/05/28 06:01:44;;;;;;;37.13;33.08;;;;;;;21.10;61.68;99630.13;5052159;28;20157;-50
2021/05/28 06:04:09;;;;;;;35.35;30.77;;;;;;;21.09;61.47;99618.38;5052333;28;20126;-56
2021/05/28 06:06:35;;;;;;;32.60;28.90;;;;;;;21.28;61.36;99633.19;5047573;28;20182;-55
2021/05/28 06:09:00;;;;;;;32.10;28.60;;;;;;;21.51;60.59;99629.38;5052368;28;20493;-52
2021/05/28 06:11:25;;;;;;;38.55;29.08;;;;;;;21.37;59.84;99558.47;5052988;28;20528;-52
2021/05/28 06:13:51;;;;;;;31.77;27.95;;;;;;;21.98;59.16;99615.97;5052020;28;20033;-54
2021/05/28 06:16:16;;;;;;;30.75;27.25;;;;;;;22.46;58.20;99615.09;5051327;28;20448;-48
2021/05/28 06:18:42;;;;;;;30.50;27.13;;;;;;;22.90;56.58;99592.84;5048265;28;20481;-51
2021/05/28 06:21:08;;;;;;;28.48;25.50;;;;;;;23.61;54.74;99606.84;5050331;28;20166;-53
2021/05/28 06:23:33;;;;;;;29.05;25.45;;;;;;;24.16;53.28;99603.69;5052040;28;20051;-54
2021/05/28 06:25:59;;;;;;;31.30;27.92;;;;;;;24.66;51.57;99607.59;5052598;28;20411;-51
2021/05/28 06:28:25;;;;;;;31.60;28.33;;;;;;;25.15;50.17;99599.59;5048975;28;20037;-53
2021/05/28 06:30:50;;;;;;;30.63;26.70;;;;;;;25.45;48.96;99596.13;5052430;28;20174;-51
2021/05/28 06:33:16;;;;;;;28.15;25.17;;;;;;;25.86;47.89;99599.28;5052143;28;20036;-55
2021/05/28 06:35:42;;;;;;;27.63;24.85;;;;;;;25.78;47.59;99558.44;5051894;28;20095;-52
2021/05/28 06:38:10;;;;;;;28.70;25.42;;;;;;;25.83;47.03;99552.25;5047529;28;20075;-53
2021/05/28 06:40:37;;;;;;;29.02;25.95;;;;;;;26.02;46.86;99605.16;5031435;28;20029;-51
2021/05/28 06:43:03;;;;;;;29.83;26.10;;;;;;;25.98;46.85;99591.09;5032032;28;20096;-53
2021/05/28 06:45:29;;;;;;;31.70;25.48;;;;;;;25.93;47.21;99599.19;5049970;28;20037;-52
2021/05/28 06:47:55;;;;;;;29.55;26.10;;;;;;;25.76;47.09;99582.50;5050947;28;20041;-52
2021/05/28 06:50:20;;;;;;;27.42;24.60;;;;;;;25.76;47.31;99599.81;5042160;28;20559;-50
2021/05/28 06:52:46;;;;;;;29.52;24.20;;;;;;;25.32;47.52;99572.47;5039151;28;20029;-54
2021/05/28 06:55:12;;;;;;;28.92;23.38;;;;;;;25.41;47.69;99603.13;5040543;28;20029;-52
2021/05/28 06:57:38;;;;;;;30.15;26.83;;;;;;;25.42;47.83;99615.75;5039899;28;20120;-48
2021/05/28 07:00:07;;;;;;;34.95;29.30;;;;;;;25.34;48.00;99608.69;5037808;28;20417;-53
2021/05/28 07:02:32;;;;;;;33.97;29.92;;;;;;;25.24;48.34;99602.88;5039284;28;20030;-57
2021/05/28 07:04:58;;;;;;;32.38;28.88;;;;;;;24.84;48.56;99563.03;5040611;28;20485;-54
2021/05/28 07:07:23;;;;;;;32.17;27.80;;;;;;;24.89;49.29;99595.22;5041818;28;20041;-49
2021/05/28 07:09:49;;;;;;;31.00;27.67;;;;;;;24.88;49.49;99594.38;5039534;28;20034;-49
2021/05/28 07:12:15;;;;;;;29.42;26.20;;;;;;;24.91;49.53;99598.56;5039585;28;20099;-53
2021/05/28 07:14:40;;;;;;;32.55;28.33;;;;;;;24.74;49.22;99557.19;5039630;28;20136;-51
2021/05/28 07:17:06;;;;;;;32.45;29.05;;;;;;;25.13;48.97;99600.91;5042171;28;20051;-50
2021/05/28 07:19:32;;;;;;;32.80;27.25;;;;;;;25.30;48.26;99607.44;5039786;28;20429;-49
2021/05/28 07:21:58;;;;;;;28.85;25.00;;;;;;;25.35;47.72;99550.09;5039794;28;20098;-54
2021/05/28 07:24:23;;;;;;;29.85;25.27;;;;;;;25.80;46.93;99590.06;5044913;28;20032;-56
2021/05/28 07:26:49;;;;;;;26.63;23.83;;;;;;;26.18;46.30;99601.81;5041819;28;20482;-56
2021/05/28 07:29:14;;;;;;;26.63;23.77;;;;;;;26.33;45.72;99587.66;5044179;28;20044;-50
2021/05/28 07:31:40;;;;;;;26.38;23.10;;;;;;;26.62;44.56;99585.09;5060252;28;20465;-54
2021/05/28 07:34:06;;;;;;;27.50;20.67;;;;;;;27.14;43.50;99585.53;5053578;28;20364;-53
2021/05/28 07:36:31;;;;;;;20.75;18.60;;;;;;;27.63;41.62;99591.59;5061383;28;20063;-53
2021/05/28 07:38:57;;;;;;;18.80;16.98;;;;;;;28.43;40.22;99590.13;5059267;28;20123;-53
2021/05/28 07:41:23;;;;;;;20.48;16.02;;;;;;;29.10;38.71;99598.66;5063952;28;20587;-51
2021/05/28 07:43:48;;;;;;;19.77;17.73;;;;;;;29.40;37.86;99580.88;5051322;28;20037;-51
2021/05/28 07:46:14;;;;;;;20.27;17.65;;;;;;;29.77;37.24;99596.84;5044972;28;20087;-52
2021/05/28 07:48:40;;;;;;;20.42;18.33;;;;;;;30.30;36.45;99599.94;5030539;28;20029;-52
2021/05/28 07:51:05;;;;;;;21.17;18.90;;;;;;;30.43;36.03;99568.31;5028522;28;20132;-53
2021/05/28 07:53:31;;;;;;;22.13;18.27;;;;;;;31.03;35.37;99601.41;5030635;28;20407;-49
2021/05/28 07:56:05;;;;;;;22.00;18.48;;;;;;;31.45;34.58;99598.91;5030730;28;20149;-57
2021/05/28 07:58:32;;;;;;;21.40;19.05;;;;;;;31.77;34.13;99609.03;5031091;28;20124;-51
2021/05/28 08:00:58;;;;;;;21.58;19.45;;;;;;;32.30;33.19;99564.59;5030401;28;20517;-51
2021/05/28 08:03:24;;;;;;;21.73;19.20;;;;;;;33.50;31.04;99593.09;5030390;28;20056;-52
2021/05/28 08:05:50;;;;;;;20.90;18.13;;;;;;;34.80;29.05;99589.59;5030603;28;20370;-51
2021/05/28 08:08:19;;;;;;;23.55;18.75;;;;;;;36.05;27.09;99598.25;5034084;28;20436;-49
2021/05/28 08:10:45;;;;;;;20.75;18.60;;;;;;;36.83;25.90;99580.31;5048674;28;20036;-50
2021/05/28 08:13:11;;;;;;;18.80;16.90;;;;;;;37.12;24.69;99570.88;5046010;28;20120;-48
2021/05/28 08:15:36;;;;;;;19.08;17.33;;;;;;;36.47;25.18;99578.91;5050105;28;20035;-50
2021/05/28 08:18:02;;;;;;;19.92;17.42;;;;;;;35.66;26.62;99596.50;5050355;28;20041;-52
2021/05/28 08:20:28;;;;;;;18.65;16.80;;;;;;;34.93;27.30;99549.94;5050049;28;20040;-53
2021/05/28 08:22:55;;;;;;;18.38;16.65;;;;;;;34.61;27.66;99581.97;5048265;28;20119;-51
2021/05/28 08:25:20;;;;;;;16.02;14.45;;;;;;;34.02;27.75;99576.25;5038469;28;20036;-54
2021/05/28 08:27:46;;;;;;;16.75;14.95;;;;;;;33.45;28.35;99582.03;5049994;28;20091;-53
2021/05/28 08:30:14;;;;;;;19.85;16.20;;;;;;;32.89;29.11;99572.69;5049711;28;20072;-49
2021/05/28 08:32:40;;;;;;;17.35;14.90;;;;;;;32.25;30.18;99578.47;5049692;28;20037;-52
2021/05/28 08:35:06;;;;;;;19.20;16.17;;;;;;;31.35;31.47;99589.47;5039379;28;20524;-52
2021/05/28 08:37:32;;;;;;;17.88;16.23;;;;;;;30.58;32.64;99555.72;5030217;28;20132;-52
2021/05/28 08:39:57;;;;;;;20.48;18.35;;;;;;;30.34;33.89;99572.63;5030043;28;20061;-53
2021/05/28 08:42:23;;;;;;;21.00;18.80;;;;;;;30.21;34.20;99577.50;5030059;28;20145;-52
2021/05/28 08:44:49;;;;;;;19.15;17.23;;;;;;;30.10;34.41;99556.38;5030961;28;20034;-52
2021/05/28 08:47:16;;;;;;;19.17;15.85;;;;;;;30.32;33.95;99569.28;5049092;28;20037;-51
2021/05/28 08:49:52;;;;;;;17.35;15.55;;;;;;;30.46;33.38;99587.13;5049483;28;20036;-55
2021/05/28 08:52:20;;;;;;;17.13;15.05;;;;;;;30.16;33.92;99577.44;5049971;28;20441;-49
2021/05/28 08:54:47;;;;;;;20.50;15.38;;;;;;;29.88;34.22;99556.41;5048893;28;20120;-55
2021/05/28 08:57:12;;;;;;;18.27;15.35;;;;;;;29.56;34.94;99579.22;5048064;28;20033;-52
2021/05/28 08:59:38;;;;;;;16.42;14.68;;;;;;;29.00;35.66;99572.63;5050757;28;20503;-49
2021/05/28 09:02:04;;;;;;;14.15;11.57;;;;;;;28.55;35.75;99565.25;5059170;28;20044;-52
2021/05/28 09:04:29;;;;;;;13.45;12.15;;;;;;;28.21;37.13;99574.31;5057394;28;20101;-52
2021/05/28 09:06:55;;;;;;;14.18;12.68;;;;;;;28.10;37.76;99572.44;5046503;28;20039;-55
2021/05/28 09:09:27;;;;;;;15.23;12.23;;;;;;;28.14;37.65;99582.69;5065132;28;20500;-50
2021/05/28 09:11:56;;;;;;;14.05;12.35;;;;;;;28.21;37.63;99572.41;5067652;28;20028;-50
2021/05/28 09:14:42;;;;;;;15.80;13.82;;;;;;;28.51;37.03;99586.94;5051757;28;20137;-53
2021/05/28 09:17:10;;;;;;;20.40;13.40;;;;;;;28.22;37.43;99532.78;5042271;28;20037;-54
2021/05/28 09:19:37;;;;;;;16.80;14.88;;;;;;;28.53;37.01;99556.41;5029955;28;20128;-51
2021/05/28 09:22:07;;;;;;;21.30;15.30;;;;;;;28.92;36.43;99570.28;5030707;28;20033;-55
2021/05/28 09:24:36;;;;;;;16.95;14.30;;;;;;;29.08;36.44;99574.13;5033441;28;20083;-51
2021/05/28 09:27:23;;;;;;;17.15;15.38;;;;;;;29.24;36.28;99566.91;5036421;28;20033;-50
2021/05/28 09:30:03;;;;;;;16.10;14.43;;;;;;;29.03;36.69;99565.75;5043069;28;20124;-51
2021/05/28 09:32:30;;;;;;;17.58;15.23;;;;;;;28.66;36.70;99567.09;5043138;28;20485;-49
2021/05/28 09:34:56;;;;;;;15.90;13.90;;;;;;;28.42;36.97;99550.72;5041428;28;20030;-48
2021/05/28 09:37:34;;;;;;;15.32;13.77;;;;;;;28.17;36.97;99532.69;5041570;28;20025;-51
2021/05/28 09:40:18;;;;;;;15.70;12.38;;;;;;;28.43;36.91;99563.41;5044006;28;20138;-53
2021/05/28 09:42:56;;;;;;;13.23;11.77;;;;;;;28.58;36.22;99564.75;5042249;28;20041;-55
2021/05/28 09:45:24;;;;;;;12.68;10.73;;;;;;;28.65;35.96;99570.94;5051067;28;20053;-49
2021/05/28 09:47:50;;;;;;;12.63;11.27;;;;;;;28.69;35.64;99563.81;5047815;28;20037;-50
2021/05/28 09:50:16;;;;;;;14.40;12.57;;;;;;;28.57;36.54;99561.16;5032902;28;20052;-53
2021/05/28 09:52:41;;;;;;;14.38;12.82;;;;;;;28.25;37.74;99550.72;5033725;28;20069;-51
2021/05/28 09:55:10;;;;;;;16.25;14.20;;;;;;;28.14;38.48;99563.41;5032550;28;20041;-53
2021/05/28 09:57:37;;;;;;;14.77;13.05;;;;;;;27.97;39.44;99557.88;5035185;28;20029;-51
2021/05/28 10:00:20;;;;;;;14.25;12.73;;;;;;;27.82;39.80;99561.16;5033521;28;20044;-48
2021/05/28 10:02:45;;;;;;;16.08;13.52;;;;;;;27.78;40.19;99551.75;5032680;28;20053;-46
2021/05/28 10:05:20;;;;;;;14.70;12.80;;;;;;;27.84;39.78;99560.91;5032441;28;20036;-51
2021/05/28 10:07:46;;;;;;;13.75;12.57;;;;;;;28.13;38.33;99528.72;5032935;28;20041;-50
2021/05/28 10:10:11;;;;;;;13.80;12.18;;;;;;;28.46;37.50;99546.41;5033783;28;20042;-50
2021/05/28 10:12:37;;;;;;;14.88;11.95;;;;;;;28.70;36.79;99551.75;5032588;28;20064;-52
2021/05/28 10:15:03;;;;;;;12.43;10.90;;;;;;;28.81;36.22;99544.47;5034141;28;20028;-50
2021/05/28 10:17:30;;;;;;;12.55;11.38;;;;;;;28.64;35.92;99527.94;5053261;28;20048;-52
2021/05/28 10:19:55;;;;;;;12.70;11.15;;;;;;;28.65;35.81;99548.88;5059984;28;20029;-58
2021/05/28 10:22:22;;;;;;;11.73;10.30;;;;;;;28.50;35.71;99525.53;5047523;28;20048;-61
2021/05/28 10:24:48;;;;;;;12.93;10.80;;;;;;;28.20;35.59;99515.66;5054377;28;20090;-51
2021/05/28 10:27:24;;;;;;;11.52;10.18;;;;;;;28.13;35.22;99539.72;5048734;28;20037;-53
2021/05/28 10:29:52;;;;;;;12.63;10.05;;;;;;;27.74;35.96;99542.31;5032331;28;20037;-59
2021/05/28 10:32:18;;;;;;;11.02;10.13;;;;;;;27.20;36.70;99549.69;5057963;28;20041;-54
2021/05/28 10:35:09;;;;;;;10.80;9.60;;;;;;;26.88;36.83;99546.47;5058683;28;20039;-59
2021/05/28 10:37:36;;;;;;;12.82;11.25;;;;;;;26.55;37.54;99550.63;5067694;28;20037;-52
2021/05/28 10:40:02;;;;;;;12.50;11.20;;;;;;;26.41;38.06;99545.34;5054843;28;20119;-53
2021/05/28 10:42:29;;;;;;;14.75;10.77;;;;;;;26.34;38.63;99547.34;5056028;28;20514;-51
2021/05/28 10:44:54;;;;;;;12.82;10.70;;;;;;;26.29;38.22;99542.56;5056477;28;20037;-55
2021/05/28 10:47:21;;;;;;;14.60;10.93;;;;;;;26.21;37.94;99542.91;5049192;28;20116;-58
2021/05/28 10:49:52;;;;;;;12.43;10.82;;;;;;;25.87;38.92;99515.94;5048359;28;20072;-47
2021/05/28 10:52:34;;;;;;;12.10;10.32;;;;;;;25.82;39.91;99536.88;5039868;28;20048;-52
2021/05/28 10:55:11;;;;;;;11.52;10.38;;;;;;;25.64;40.04;99546.81;5030064;28;20097;-51
2021/05/28 10:57:53;;;;;;;14.93;11.02;;;;;;;25.55;40.17;99532.56;5031377;28;20040;-54
2021/05/28 11:00:23;;;;;;;13.73;11.85;;;;;;;25.51;40.40;99529.47;5030728;28;20053;-55
2021/05/28 11:03:11;;;;;;;12.55;11.35;;;;;;;25.66;40.20;99528.22;5039373;28;20044;-55
2021/05/28 11:05:39;;;;;;;11.98;10.98;;;;;;;25.70;39.38;99513.00;5050829;28;20060;-56
2021/05/28 11:08:43;;;;;;;12.75;11.43;;;;;;;26.13;39.56;99529.47;5050934;28;20033;-57
2021/05/28 11:11:43;;;;;;;13.52;12.20;;;;;;;26.27;39.16;99532.88;5051113;28;20037;-51
2021/05/28 11:14:11;;;;;;;14.07;12.65;;;;;;;26.29;39.33;99536.25;5049327;28;20439;-59
2021/05/28 11:16:48;;;;;;;13.60;12.20;;;;;;;26.59;38.91;99529.84;5050479;28;20025;-55
2021/05/28 11:19:30;;;;;;;15.63;12.07;;;;;;;27.11;38.11;99531.06;5050422;28;20044;-53